createdAt,value
2022-08-07T00:01:44.490Z,82.53
2022-08-07T00:04:15.394Z,82.43
2022-08-07T00:06:51.300Z,82.41
2022-08-07T00:09:35.717Z,82.17
2022-08-07T00:12:04.587Z,82.21
2022-08-07T00:14:32.758Z,82.17
2022-08-07T00:17:02.563Z,82.13
2022-08-07T00:19:59.737Z,82.12
2022-08-07T00:22:24.470Z,82.04
2022-08-07T00:25:11.122Z,81.94
2022-08-07T00:27:52.492Z,81.94
2022-08-07T00:30:27.313Z,81.94
2022-08-07T00:32:58.511Z,81.63
2022-08-07T00:35:29.606Z,81.59
2022-08-07T00:37:59.753Z,81.62
2022-08-07T00:40:39.896Z,81.67
2022-08-07T00:43:59.298Z,81.60
2022-08-07T00:46:04.900Z,81.52
2022-08-07T00:48:36.566Z,81.46
2022-08-07T00:51:10.859Z,81.25
2022-08-07T00:53:50.121Z,81.13
2022-08-07T00:56:30.277Z,81.16
2022-08-07T00:59:02.369Z,81.15
2022-08-07T01:01:41.539Z,81.02
2022-08-07T01:04:24.550Z,80.90
2022-08-07T01:06:53.837Z,81.29
2022-08-07T01:10:04.756Z,81.35
2022-08-07T01:12:43.940Z,81.46
2022-08-07T01:15:36.136Z,81.41
2022-08-07T01:18:17.097Z,81.41
2022-08-07T01:21:02.700Z,81.48
2022-08-07T01:23:38.065Z,81.49
2022-08-07T01:26:13.312Z,81.39
2022-08-07T01:28:48.638Z,81.56
2022-08-07T01:31:41.686Z,81.51
2022-08-07T01:34:14.445Z,81.63
2022-08-07T01:36:45.295Z,81.42
2022-08-07T01:39:26.810Z,81.48
2022-08-07T01:42:38.705Z,81.45
2022-08-07T01:44:59.767Z,81.41
2022-08-07T01:48:19.637Z,81.55
2022-08-07T01:50:29.091Z,81.70
2022-08-07T01:53:00.466Z,81.58
2022-08-07T01:55:36.802Z,81.62
2022-08-07T01:58:27.052Z,81.68
2022-08-07T02:01:25.324Z,81.72
2022-08-07T02:04:10.852Z,81.72
2022-08-07T02:06:43.246Z,81.80
2022-08-07T02:09:53.299Z,81.95
2022-08-07T02:12:17.775Z,81.78
2022-08-07T02:14:57.018Z,81.75
2022-08-07T02:17:39.744Z,81.43
2022-08-07T02:20:17.477Z,81.29
2022-08-07T02:22:55.328Z,81.40
2022-08-07T02:26:31.177Z,81.20
2022-08-07T02:28:29.513Z,81.10
2022-08-07T02:31:10.247Z,81.01
2022-08-07T02:34:02.955Z,81.19
2022-08-07T02:36:37.411Z,81.46
2022-08-07T02:39:42.963Z,81.13
2022-08-07T02:42:10.334Z,81.03
2022-08-07T02:44:48.405Z,80.94
2022-08-07T02:47:23.323Z,80.96
2022-08-07T02:49:57.826Z,80.34
2022-08-07T02:52:52.889Z,80.11
2022-08-07T02:55:28.524Z,80.22
2022-08-07T02:58:21.582Z,80.63
2022-08-07T03:00:55.072Z,80.98
2022-08-07T03:03:29.584Z,80.74
2022-08-07T03:06:25.579Z,80.63
2022-08-07T03:09:11.150Z,80.63
2022-08-07T03:11:51.961Z,81.10
2022-08-07T03:14:27.722Z,81.20
2022-08-07T03:16:57.204Z,80.87
2022-08-07T03:19:28.856Z,80.69
2022-08-07T03:21:59.121Z,80.66
2022-08-07T03:24:30.712Z,80.61
2022-08-07T03:27:05.003Z,80.77
2022-08-07T03:29:51.019Z,80.58
2022-08-07T03:32:30.533Z,80.67
2022-08-07T03:35:17.413Z,80.70
2022-08-07T03:37:55.287Z,80.59
2022-08-07T03:40:27.544Z,80.60
2022-08-07T03:43:13.820Z,80.70
2022-08-07T03:45:47.580Z,80.65
2022-08-07T03:48:18.681Z,80.73
2022-08-07T03:50:55.960Z,80.73
2022-08-07T03:53:30.318Z,80.76
2022-08-07T03:56:32.461Z,81.05
2022-08-07T03:59:12.815Z,81.26
2022-08-07T04:01:45.878Z,81.21
2022-08-07T04:04:18.819Z,81.29
2022-08-07T04:06:51.961Z,81.42
2022-08-07T04:09:23.221Z,81.51
2022-08-07T04:12:27.062Z,81.58
2022-08-07T04:14:43.822Z,81.72
2022-08-07T04:17:20.772Z,82.02
2022-08-07T04:19:54.225Z,82.26
2022-08-07T04:22:29.572Z,82.48
2022-08-07T04:25:02.184Z,82.73
2022-08-07T04:27:35.902Z,83.15
2022-08-07T04:30:35.768Z,83.54
2022-08-07T04:33:07.358Z,83.57
2022-08-07T04:35:39.381Z,83.73
2022-08-07T04:38:13.377Z,83.69
2022-08-07T04:40:51.595Z,83.71
2022-08-07T04:44:10.151Z,83.90
2022-08-07T04:47:04.269Z,83.94
2022-08-07T04:49:57.561Z,83.78
2022-08-07T04:52:52.485Z,83.99
2022-08-07T04:58:12.864Z,84.10
2022-08-07T04:59:17.426Z,84.01
2022-08-07T05:01:40.955Z,83.82
2022-08-07T05:04:17.943Z,83.90
2022-08-07T05:06:57.057Z,83.76
2022-08-07T05:09:45.780Z,83.30
2022-08-07T05:12:27.376Z,83.32
2022-08-07T05:15:22.979Z,83.39
2022-08-07T05:17:58.438Z,83.38
2022-08-07T05:20:39.568Z,82.87
2022-08-07T05:23:17.173Z,82.72
2022-08-07T05:26:13.581Z,82.44
2022-08-07T05:28:40.512Z,82.46
2022-08-07T05:31:12.804Z,82.19
2022-08-07T05:34:01.356Z,81.61
2022-08-07T05:36:35.988Z,81.79
2022-08-07T05:40:17.843Z,81.94
2022-08-07T05:42:05.325Z,81.50
2022-08-07T05:44:46.398Z,81.76
2022-08-07T05:47:20.911Z,80.79
2022-08-07T05:50:06.757Z,80.90
2022-08-07T05:52:35.010Z,80.71
2022-08-07T05:55:10.951Z,79.82
2022-08-07T05:57:42.826Z,79.50
2022-08-07T06:00:16.266Z,79.30
2022-08-07T06:02:51.837Z,79.37
2022-08-07T06:05:28.201Z,78.66
2022-08-07T06:08:13.570Z,78.55
2022-08-07T06:10:51.361Z,78.04
2022-08-07T06:14:10.810Z,78.25
2022-08-07T06:16:16.337Z,79.17
2022-08-07T06:18:51.533Z,78.01
2022-08-07T06:22:15.814Z,77.95
2022-08-07T06:24:53.032Z,77.54
2022-08-07T06:26:57.499Z,77.51
2022-08-07T06:29:28.173Z,77.47
2022-08-07T06:31:57.692Z,77.78
2022-08-07T06:34:29.785Z,77.25
2022-08-07T06:36:58.955Z,76.83
2022-08-07T06:40:17.252Z,75.37
2022-08-07T06:42:35.101Z,73.77
2022-08-07T06:45:25.038Z,74.09
2022-08-07T06:47:59.785Z,72.99
2022-08-07T06:50:36.450Z,71.61
2022-08-07T06:53:49.298Z,71.94
2022-08-07T06:56:01.561Z,71.95
2022-08-07T06:58:35.687Z,70.26
2022-08-07T07:01:10.819Z,71.92
2022-08-07T07:03:49.980Z,71.47
2022-08-07T07:06:26.580Z,71.02
2022-08-07T07:08:56.959Z,71.09
2022-08-07T07:12:08.442Z,70.15
2022-08-07T07:14:24.649Z,68.83
2022-08-07T07:16:58.768Z,68.15
2022-08-07T07:19:55.948Z,67.39
2022-08-07T07:22:34.025Z,66.88
2022-08-07T07:26:32.287Z,67.36
2022-08-07T07:28:29.621Z,64.31
2022-08-07T07:31:17.164Z,65.34
2022-08-07T07:33:57.053Z,61.75
2022-08-07T07:36:32.219Z,62.37
2022-08-07T07:39:03.633Z,63.47
2022-08-07T07:42:02.278Z,63.18
2022-08-07T07:44:26.711Z,60.54
2022-08-07T07:47:04.387Z,60.66
2022-08-07T07:50:34.582Z,63.48
2022-08-07T07:52:37.888Z,62.55
2022-08-07T07:55:10.932Z,60.07
2022-08-07T07:57:50.331Z,63.14
2022-08-07T08:00:29.013Z,62.01
2022-08-07T08:03:08.818Z,61.57
2022-08-07T08:05:53.817Z,59.99
2022-08-07T08:08:35.744Z,58.80
2022-08-07T08:11:08.452Z,58.35
2022-08-07T08:13:50.810Z,59.01
2022-08-07T08:16:50.445Z,58.95
2022-08-07T08:20:15.931Z,57.34
2022-08-07T08:22:33.811Z,56.78
2022-08-07T08:25:27.002Z,56.65
2022-08-07T08:28:16.699Z,57.08
2022-08-07T08:30:59.190Z,57.45
2022-08-07T08:33:35.131Z,57.05
2022-08-07T08:36:05.207Z,58.18
2022-08-07T08:38:41.151Z,56.17
2022-08-07T08:41:58.475Z,55.92
2022-08-07T08:44:44.935Z,57.48
2022-08-07T08:48:04.350Z,57.69
2022-08-07T08:50:40.111Z,56.63
2022-08-07T08:53:35.335Z,57.64
2022-08-07T08:56:24.701Z,57.47
2022-08-07T08:59:06.410Z,57.08
2022-08-07T09:01:59.724Z,57.55
2022-08-07T09:04:47.128Z,54.81
2022-08-07T09:07:26.627Z,54.65
2022-08-07T09:09:59.895Z,56.25
2022-08-07T09:12:53.674Z,56.11
2022-08-07T09:16:23.337Z,54.49
2022-08-07T09:18:58.674Z,53.79
2022-08-07T09:22:09.635Z,55.03
2022-08-07T09:24:58.920Z,54.93
2022-08-07T09:27:31.187Z,55.87
2022-08-07T09:30:10.424Z,55.44
2022-08-07T09:32:57.935Z,53.58
2022-08-07T09:36:03.158Z,54.78
2022-08-07T09:38:54.839Z,53.78
2022-08-07T09:41:58.474Z,54.05
2022-08-07T09:47:26.046Z,53.94
2022-08-07T09:48:00.102Z,54.49
2022-08-07T09:52:10.906Z,56.06
2022-08-07T09:54:07.999Z,53.92
2022-08-07T09:57:03.720Z,52.09
2022-08-07T10:00:00.712Z,51.59
2022-08-07T10:02:57.286Z,53.03
2022-08-07T10:05:59.770Z,53.49
2022-08-07T10:09:42.790Z,51.90
2022-08-07T10:12:34.545Z,53.04
2022-08-07T10:15:44.507Z,52.34
2022-08-07T10:18:26.325Z,51.92
2022-08-07T10:22:14.756Z,51.08
2022-08-07T10:24:33.302Z,51.95
2022-08-07T10:27:06.649Z,51.45
2022-08-07T10:30:00.660Z,52.29
2022-08-07T10:32:53.091Z,52.36
2022-08-07T10:35:55.288Z,50.31
2022-08-07T10:38:51.448Z,50.79
2022-08-07T10:41:46.473Z,49.67
2022-08-07T10:44:33.904Z,48.71
2022-08-07T10:47:51.639Z,48.92
2022-08-07T10:50:31.830Z,48.95
2022-08-07T10:53:26.525Z,49.53
2022-08-07T10:56:11.120Z,49.39
2022-08-07T10:59:06.043Z,48.95
2022-08-07T11:02:32.805Z,48.70
2022-08-07T11:06:18.180Z,48.61
2022-08-07T11:08:55.028Z,50.62
2022-08-07T11:11:35.793Z,48.94
2022-08-07T11:14:45.967Z,48.61
2022-08-07T11:17:07.256Z,46.28
2022-08-07T11:19:58.738Z,48.21
2022-08-07T11:22:45.987Z,48.33
2022-08-07T11:25:23.775Z,48.04
2022-08-07T11:28:06.794Z,47.29
2022-08-07T11:30:45.562Z,48.18
2022-08-07T11:33:54.331Z,44.99
2022-08-07T11:36:38.399Z,45.53
2022-08-07T11:39:19.749Z,46.69
2022-08-07T11:42:19.852Z,46.95
2022-08-07T11:45:00.555Z,48.21
2022-08-07T11:47:56.340Z,47.55
2022-08-07T11:50:44.222Z,47.04
2022-08-07T11:54:00.567Z,46.41
2022-08-07T11:56:56.114Z,45.97
2022-08-07T12:00:10.622Z,46.76
2022-08-07T12:03:01.216Z,47.69
2022-08-07T12:05:49.881Z,47.02
2022-08-07T12:08:38.192Z,46.77
2022-08-07T12:11:43.459Z,46.12
2022-08-07T12:14:32.488Z,47.24
2022-08-07T12:17:08.928Z,44.74
2022-08-07T12:20:30.160Z,46.66
2022-08-07T12:26:22.651Z,45.36
2022-08-07T12:29:09.260Z,45.28
2022-08-07T12:32:03.845Z,45.46
2022-08-07T12:34:37.318Z,45.09
2022-08-07T12:37:08.768Z,45.22
2022-08-07T12:39:58.814Z,44.74
2022-08-07T12:42:32.054Z,45.28
2022-08-07T12:45:22.722Z,45.19
2022-08-07T12:48:27.498Z,42.02
2022-08-07T12:51:13.006Z,41.59
2022-08-07T12:54:23.971Z,42.93
2022-08-07T12:56:50.852Z,41.71
2022-08-07T12:59:22.703Z,43.50
2022-08-07T13:02:13.608Z,44.10
2022-08-07T13:05:06.327Z,43.90
2022-08-07T13:08:29.369Z,44.22
2022-08-07T13:11:09.610Z,45.11
2022-08-07T13:14:09.249Z,44.41
2022-08-07T13:17:06.007Z,44.21
2022-08-07T13:19:50.851Z,43.27
2022-08-07T13:22:34.298Z,42.88
2022-08-07T13:25:29.594Z,42.52
2022-08-07T13:28:13.516Z,42.77
2022-08-07T13:31:02.108Z,43.69
2022-08-07T13:34:34.475Z,43.53
2022-08-07T13:37:10.551Z,43.36
2022-08-07T13:40:34.048Z,44.39
2022-08-07T13:43:11.999Z,43.45
2022-08-07T13:46:10.764Z,43.59
2022-08-07T13:48:35.014Z,43.88
2022-08-07T13:51:28.295Z,44.92
2022-08-07T13:54:06.207Z,44.86
2022-08-07T13:56:41.196Z,44.36
2022-08-07T13:59:31.602Z,45.59
2022-08-07T14:02:15.308Z,43.92
2022-08-07T14:04:55.110Z,44.50
2022-08-07T14:07:27.818Z,44.76
2022-08-07T14:10:02.249Z,43.99
2022-08-07T14:12:58.632Z,43.74
2022-08-07T14:15:40.141Z,45.55
2022-08-07T14:18:31.377Z,43.87
2022-08-07T14:21:07.854Z,44.05
2022-08-07T14:24:01.197Z,44.21
2022-08-07T14:26:50.499Z,43.64
2022-08-07T14:30:09.434Z,43.35
2022-08-07T14:32:13.368Z,44.73
2022-08-07T14:34:46.414Z,43.92
2022-08-07T14:37:32.967Z,43.91
2022-08-07T14:40:17.799Z,43.89
2022-08-07T14:43:55.143Z,43.73
2022-08-07T14:46:01.948Z,43.88
2022-08-07T14:48:34.645Z,43.62
2022-08-07T14:51:18.073Z,43.04
2022-08-07T14:54:30.221Z,42.88
2022-08-07T14:56:41.716Z,43.14
2022-08-07T14:59:14.030Z,43.57
2022-08-07T15:02:32.914Z,43.98
2022-08-07T15:07:51.278Z,44.33
2022-08-07T15:10:26.039Z,43.69
2022-08-07T15:12:59.870Z,43.91
2022-08-07T15:15:52.806Z,43.40
2022-08-07T15:18:33.868Z,43.23
2022-08-07T15:21:44.205Z,44.14
2022-08-07T15:26:59.711Z,43.74
2022-08-07T15:30:08.694Z,44.49
2022-08-07T15:32:39.184Z,45.06
2022-08-07T15:35:16.934Z,45.22
2022-08-07T15:38:17.937Z,45.30
2022-08-07T15:40:48.943Z,45.57
2022-08-07T15:46:31.833Z,46.63
2022-08-07T15:49:15.147Z,46.45
2022-08-07T15:54:39.667Z,46.86
2022-08-07T15:57:40.306Z,45.55
2022-08-07T16:00:06.693Z,45.29
2022-08-07T16:02:47.631Z,45.27
2022-08-07T16:05:19.773Z,45.30
2022-08-07T16:08:32.013Z,45.94
2022-08-07T16:10:48.784Z,45.33
2022-08-07T16:13:39.614Z,45.73
2022-08-07T16:16:47.735Z,45.83
2022-08-07T16:19:59.526Z,44.73
2022-08-07T16:22:37.771Z,45.12
2022-08-07T16:25:22.772Z,45.65
2022-08-07T16:29:18.326Z,45.32
2022-08-07T16:31:57.959Z,45.99
2022-08-07T16:34:51.159Z,45.84
2022-08-07T16:38:05.497Z,45.44
2022-08-07T16:40:33.434Z,46.15
2022-08-07T16:43:11.183Z,45.99
2022-08-07T16:47:07.609Z,45.81
2022-08-07T16:50:26.772Z,46.15
2022-08-07T16:52:50.074Z,47.11
2022-08-07T16:55:22.219Z,47.53
2022-08-07T16:58:04.114Z,46.71
2022-08-07T17:00:53.702Z,48.57
2022-08-07T17:03:58.447Z,48.71
2022-08-07T17:06:46.527Z,48.98
2022-08-07T17:10:05.965Z,49.35
2022-08-07T17:12:53.186Z,49.22
2022-08-07T17:15:44.605Z,49.85
2022-08-07T17:18:32.214Z,50.47
2022-08-07T17:21:02.958Z,51.31
2022-08-07T17:23:47.139Z,51.14
2022-08-07T17:26:23.898Z,51.44
2022-08-07T17:29:06.382Z,52.11
2022-08-07T17:32:02.716Z,53.30
2022-08-07T17:35:41.439Z,53.92
2022-08-07T17:38:05.539Z,54.25
2022-08-07T17:42:02.664Z,54.55
2022-08-07T17:44:15.603Z,55.17
2022-08-07T17:47:37.965Z,56.08
2022-08-07T17:50:22.894Z,56.54
2022-08-07T17:54:01.767Z,57.35
2022-08-07T17:56:31.142Z,57.84
2022-08-07T17:59:10.934Z,58.01
2022-08-07T18:02:00.746Z,58.36
2022-08-07T18:04:49.188Z,59.24
2022-08-07T18:07:34.436Z,59.54
2022-08-07T18:10:32.148Z,60.03
2022-08-07T18:13:01.224Z,60.49
2022-08-07T18:15:40.628Z,60.92
2022-08-07T18:18:44.649Z,61.11
2022-08-07T18:21:40.208Z,61.57
2022-08-07T18:24:33.364Z,61.83
2022-08-07T18:27:21.881Z,62.25
2022-08-07T18:30:07.391Z,62.67
2022-08-07T18:33:15.489Z,63.12
2022-08-07T18:36:14.873Z,63.17
2022-08-07T18:39:01.197Z,64.22
2022-08-07T18:42:13.083Z,66.50
2022-08-07T18:48:04.616Z,65.41
2022-08-07T18:50:47.375Z,63.92
2022-08-07T18:53:39.843Z,62.70
2022-08-07T18:56:08.551Z,64.11
2022-08-07T18:59:05.507Z,62.05
2022-08-07T19:02:18.187Z,60.88
2022-08-07T19:05:14.938Z,62.43
2022-08-07T19:08:07.449Z,59.88
2022-08-07T19:10:51.878Z,58.49
2022-08-07T19:13:28.753Z,58.85
2022-08-07T19:17:00.489Z,59.43
2022-08-07T19:19:08.417Z,60.04
2022-08-07T19:21:58.583Z,60.89
2022-08-07T19:24:44.596Z,61.58
2022-08-07T19:28:57.948Z,64.76
2022-08-07T19:31:05.608Z,65.90
2022-08-07T19:33:12.878Z,63.67
2022-08-07T19:35:51.575Z,62.30
2022-08-07T19:38:21.612Z,62.33
2022-08-07T19:40:56.120Z,62.11
2022-08-07T19:43:43.770Z,61.30
2022-08-07T19:46:26.788Z,61.84
2022-08-07T19:49:06.273Z,62.33
2022-08-07T19:51:52.591Z,62.69
2022-08-07T19:54:31.100Z,64.44
2022-08-07T19:58:02.673Z,62.13
2022-08-07T20:00:08.909Z,60.96
2022-08-07T20:02:52.219Z,60.30
2022-08-07T20:05:28.123Z,60.40
2022-08-07T20:08:07.271Z,61.04
2022-08-07T20:10:52.032Z,61.48
2022-08-07T20:13:37.517Z,61.17
2022-08-07T20:16:34.840Z,61.10
2022-08-07T20:19:11.687Z,61.44
2022-08-07T20:21:47.714Z,61.78
2022-08-07T20:24:23.525Z,62.17
2022-08-07T20:27:02.024Z,63.16
2022-08-07T20:29:48.402Z,63.79
2022-08-07T20:32:40.250Z,64.78
2022-08-07T20:35:16.262Z,65.97
2022-08-07T20:37:57.701Z,63.17
2022-08-07T20:40:35.285Z,63.43
2022-08-07T20:43:19.478Z,64.29
2022-08-07T20:46:27.239Z,64.45
2022-08-07T20:49:54.074Z,64.48
2022-08-07T20:51:35.926Z,65.17
2022-08-07T20:54:12.084Z,65.77
2022-08-07T20:56:52.913Z,66.04
2022-08-07T21:00:04.861Z,66.23
2022-08-07T21:02:35.557Z,66.49
2022-08-07T21:05:16.632Z,66.80
2022-08-07T21:07:49.943Z,68.22
2022-08-07T21:10:29.468Z,67.90
2022-08-07T21:13:03.714Z,67.88
2022-08-07T21:15:58.107Z,67.80
2022-08-07T21:18:41.283Z,67.83
2022-08-07T21:21:17.499Z,68.33
2022-08-07T21:24:03.751Z,69.08
2022-08-07T21:26:46.632Z,68.76
2022-08-07T21:29:38.128Z,68.98
2022-08-07T21:32:47.866Z,69.31
2022-08-07T21:35:34.713Z,69.37
2022-08-07T21:38:33.159Z,69.78
2022-08-07T21:41:22.588Z,70.33
2022-08-07T21:44:03.655Z,70.64
2022-08-07T21:46:42.077Z,71.08
2022-08-07T21:49:21.084Z,71.21
2022-08-07T21:52:06.203Z,71.51
2022-08-07T21:55:27.942Z,71.43
2022-08-07T21:58:30.204Z,71.78
2022-08-07T22:01:13.917Z,72.01
2022-08-07T22:03:51.760Z,72.12
2022-08-07T22:06:30.565Z,72.38
2022-08-07T22:09:07.068Z,72.46
2022-08-07T22:12:05.913Z,72.55
2022-08-07T22:14:38.955Z,72.60
2022-08-07T22:17:36.107Z,72.64
2022-08-07T22:20:23.991Z,72.82
2022-08-07T22:22:59.921Z,73.03
2022-08-07T22:25:46.420Z,73.28
2022-08-07T22:28:48.294Z,73.71
2022-08-07T22:32:06.078Z,73.75
2022-08-07T22:34:53.142Z,73.97
2022-08-07T22:38:05.343Z,74.26
2022-08-07T22:40:51.405Z,74.27
2022-08-07T22:43:43.769Z,74.48
2022-08-07T22:46:47.248Z,74.40
2022-08-07T22:49:33.921Z,74.59
2022-08-07T22:52:10.175Z,75.17
2022-08-07T22:55:17.297Z,75.29
2022-08-07T22:58:12.701Z,75.46
2022-08-07T23:01:06.771Z,75.35
2022-08-07T23:03:57.560Z,75.29
2022-08-07T23:06:42.425Z,75.31
2022-08-07T23:10:00.804Z,75.16
2022-08-07T23:12:49.272Z,75.05
2022-08-07T23:16:04.377Z,75.04
2022-08-07T23:18:25.781Z,75.08
2022-08-07T23:21:16.367Z,74.97
2022-08-07T23:24:11.993Z,74.99
2022-08-07T23:27:11.164Z,75.25
2022-08-07T23:30:38.523Z,75.61
2022-08-07T23:34:35.253Z,75.48
2022-08-07T23:36:32.605Z,75.79
2022-08-07T23:39:55.637Z,75.97
2022-08-07T23:42:45.848Z,76.02
2022-08-07T23:45:33.535Z,75.96
2022-08-07T23:48:41.094Z,75.84
2022-08-07T23:53:01.141Z,75.96
2022-08-07T23:54:35.892Z,75.80
2022-08-07T23:57:23.783Z,75.90
